createdAt,value
2017-12-22T00:00:31.706Z,49.36
2017-12-22T00:01:31.705Z,49.38
2017-12-22T00:02:31.735Z,49.26
2017-12-22T00:03:31.919Z,49.29
2017-12-22T00:04:31.947Z,49.21
2017-12-22T00:05:31.952Z,49.46
2017-12-22T00:06:31.901Z,49.4
2017-12-22T00:07:31.903Z,49.43
2017-12-22T00:08:31.732Z,49.54
2017-12-22T00:09:31.924Z,49.47
2017-12-22T00:10:31.987Z,49.5
2017-12-22T00:11:31.901Z,49.64
2017-12-22T00:12:31.899Z,49.43
2017-12-22T00:13:31.720Z,49.46
2017-12-22T00:14:31.747Z,49.57
2017-12-22T00:15:31.738Z,49.51
2017-12-22T00:16:31.892Z,49.28
2017-12-22T00:17:31.932Z,49.49
2017-12-22T00:18:31.897Z,49.5
2017-12-22T00:19:31.731Z,49.55
2017-12-22T00:20:31.728Z,49.45
2017-12-22T00:21:31.721Z,49.67
2017-12-22T00:22:31.933Z,49.55
2017-12-22T00:23:31.926Z,49.37
2017-12-22T00:24:31.738Z,49.69
2017-12-22T00:25:31.920Z,49.49
2017-12-22T00:26:31.722Z,49.55
2017-12-22T00:27:31.981Z,49.37
2017-12-22T00:28:31.941Z,49.57
2017-12-22T00:29:31.920Z,49.33
2017-12-22T00:30:31.911Z,49.49
2017-12-22T00:31:31.937Z,49.41
2017-12-22T00:32:31.967Z,49.65
2017-12-22T00:33:31.911Z,49.46
2017-12-22T00:34:31.747Z,49.3
2017-12-22T00:35:31.948Z,49.69
2017-12-22T00:36:31.956Z,49.36
2017-12-22T00:37:31.934Z,49.53
2017-12-22T00:38:31.927Z,49.46
2017-12-22T00:39:31.960Z,49.61
2017-12-22T00:40:31.919Z,49.52
2017-12-22T00:41:31.745Z,49.68
2017-12-22T00:42:31.923Z,49.56
2017-12-22T00:43:31.733Z,49.51
2017-12-22T00:44:32.314Z,49.47
2017-12-22T00:45:31.732Z,49.77
2017-12-22T00:46:31.916Z,49.44
2017-12-22T00:47:31.717Z,49.62
2017-12-22T00:48:31.946Z,49.45
2017-12-22T00:49:31.730Z,49.63
2017-12-22T00:50:31.749Z,49.79
2017-12-22T00:51:31.756Z,49.64
2017-12-22T00:52:31.907Z,49.71
2017-12-22T00:53:31.753Z,49.66
2017-12-22T00:54:31.929Z,49.72
2017-12-22T00:55:31.914Z,49.57
2017-12-22T00:56:31.975Z,49.52
2017-12-22T00:57:31.755Z,49.59
2017-12-22T00:58:31.950Z,49.58
2017-12-22T00:59:31.955Z,49.74
2017-12-22T01:00:31.930Z,49.93
2017-12-22T01:01:31.785Z,49.56
2017-12-22T01:02:31.964Z,49.48
2017-12-22T01:03:31.966Z,49.75
2017-12-22T01:04:31.744Z,49.56
2017-12-22T01:05:31.934Z,49.91
2017-12-22T01:06:31.998Z,49.79
2017-12-22T01:07:31.911Z,49.54
2017-12-22T01:08:31.734Z,49.7
2017-12-22T01:09:31.929Z,49.73
2017-12-22T01:10:32.080Z,49.62
2017-12-22T01:11:31.954Z,49.53
2017-12-22T01:12:31.939Z,49.52
2017-12-22T01:13:31.960Z,49.49
2017-12-22T01:14:31.930Z,49.78
2017-12-22T01:15:31.808Z,49.71
2017-12-22T01:16:31.745Z,49.96
2017-12-22T01:17:31.978Z,49.3
2017-12-22T01:18:32.024Z,49.72
2017-12-22T01:19:31.929Z,49.66
2017-12-22T01:20:31.781Z,49.55
2017-12-22T01:21:31.950Z,49.59
2017-12-22T01:22:31.947Z,49.69
2017-12-22T01:23:31.935Z,50.15
2017-12-22T01:24:31.936Z,49.4
2017-12-22T01:25:31.977Z,49.53
2017-12-22T01:26:31.939Z,49.69
2017-12-22T01:27:31.927Z,49.43
2017-12-22T01:28:31.937Z,49.72
2017-12-22T01:29:31.935Z,49.54
2017-12-22T01:30:31.818Z,49.33
2017-12-22T01:31:31.987Z,49.59
2017-12-22T01:32:31.770Z,49.65
2017-12-22T01:33:31.765Z,49.74
2017-12-22T01:34:31.949Z,49.97
2017-12-22T01:35:31.955Z,49.7
2017-12-22T01:36:31.769Z,50.06
2017-12-22T01:37:32.039Z,49.52
2017-12-22T01:38:31.750Z,49.53
2017-12-22T01:39:31.972Z,49.63
2017-12-22T01:40:31.945Z,49.55
2017-12-22T01:41:31.920Z,49.48
2017-12-22T01:42:31.974Z,49.89
2017-12-22T01:43:31.938Z,49.61
2017-12-22T01:44:31.928Z,49.75
2017-12-22T01:45:31.764Z,49.57
2017-12-22T01:46:31.959Z,49.79
2017-12-22T01:47:31.949Z,49.78
2017-12-22T01:48:31.929Z,49.84
2017-12-22T01:49:31.755Z,49.73
2017-12-22T01:50:31.966Z,49.44
2017-12-22T01:51:31.937Z,50.09
2017-12-22T01:52:32.321Z,50.14
2017-12-22T01:53:31.764Z,49.55
2017-12-22T01:54:31.940Z,50.05
2017-12-22T01:55:31.979Z,49.57
2017-12-22T01:56:31.948Z,49.43
2017-12-22T01:57:32.005Z,49.81
2017-12-22T01:58:31.941Z,49.59
2017-12-22T01:59:31.941Z,49.59
2017-12-22T02:00:31.980Z,49.75
2017-12-22T02:01:31.970Z,49.68
2017-12-22T02:02:31.991Z,49.69
2017-12-22T02:03:31.982Z,49.97
2017-12-22T02:04:31.753Z,49.86
2017-12-22T02:05:31.778Z,49.96
2017-12-22T02:06:31.749Z,49.97
2017-12-22T02:07:31.970Z,49.9
2017-12-22T02:08:31.979Z,49.69
2017-12-22T02:09:31.937Z,49.91
2017-12-22T02:10:31.940Z,49.65
2017-12-22T02:11:31.982Z,49.83
2017-12-22T02:12:31.969Z,49.8
2017-12-22T02:13:31.971Z,49.68
2017-12-22T02:14:31.948Z,49.77
2017-12-22T02:15:31.964Z,49.71
2017-12-22T02:16:31.722Z,49.51
2017-12-22T02:17:31.720Z,49.81
2017-12-22T02:18:31.933Z,49.75
2017-12-22T02:19:31.998Z,49.9
2017-12-22T02:20:31.760Z,49.68
2017-12-22T02:21:31.985Z,49.91
2017-12-22T02:22:31.959Z,49.93
2017-12-22T02:23:31.799Z,49.53
2017-12-22T02:24:31.965Z,49.97
2017-12-22T02:25:31.767Z,49.53
2017-12-22T02:26:31.944Z,49.9
2017-12-22T02:27:31.962Z,49.79
2017-12-22T02:28:31.979Z,49.91
2017-12-22T02:29:31.773Z,50.23
2017-12-22T02:30:32.006Z,49.84
2017-12-22T02:31:31.966Z,49.84
2017-12-22T02:32:31.987Z,49.81
2017-12-22T02:33:31.996Z,49.94
2017-12-22T02:34:31.972Z,49.79
2017-12-22T02:35:31.752Z,49.63
2017-12-22T02:36:31.985Z,49.75
2017-12-22T02:37:31.992Z,49.85
2017-12-22T02:38:32.065Z,50
2017-12-22T02:39:31.974Z,49.75
2017-12-22T02:40:31.991Z,49.94
2017-12-22T02:41:31.956Z,50
2017-12-22T02:42:31.998Z,49.97
2017-12-22T02:43:31.979Z,49.77
2017-12-22T02:44:31.986Z,49.97
2017-12-22T02:45:31.755Z,50.08
2017-12-22T02:46:31.790Z,49.91
2017-12-22T02:47:31.817Z,49.58
2017-12-22T02:48:32.308Z,49.6
2017-12-22T02:49:31.952Z,50.08
2017-12-22T02:50:31.964Z,49.86
2017-12-22T02:51:31.969Z,49.53
2017-12-22T02:52:31.763Z,50.01
2017-12-22T02:53:31.987Z,50.19
2017-12-22T02:54:31.798Z,49.71
2017-12-22T02:55:31.970Z,50.08
2017-12-22T02:56:31.968Z,49.6
2017-12-22T02:57:31.797Z,50.25
2017-12-22T02:58:32.009Z,50.02
2017-12-22T02:59:31.976Z,49.87
2017-12-22T03:00:31.966Z,49.83
2017-12-22T03:01:31.960Z,50.08
2017-12-22T03:02:31.985Z,49.86
2017-12-22T03:03:31.974Z,50.1
2017-12-22T03:04:31.978Z,49.83
2017-12-22T03:05:31.958Z,50.16
2017-12-22T03:06:31.758Z,50.06
2017-12-22T03:07:31.786Z,50.28
2017-12-22T03:08:31.967Z,49.83
2017-12-22T03:09:32.079Z,49.83
2017-12-22T03:10:31.793Z,49.57
2017-12-22T03:11:31.991Z,50.13
2017-12-22T03:12:31.952Z,49.81
2017-12-22T03:13:31.777Z,50.15
2017-12-22T03:14:31.996Z,49.76
2017-12-22T03:15:31.982Z,50.2
2017-12-22T03:16:31.997Z,49.66
2017-12-22T03:17:31.783Z,50.07
2017-12-22T03:18:31.983Z,50.03
2017-12-22T03:19:31.792Z,49.66
2017-12-22T03:20:31.977Z,50.27
2017-12-22T03:21:32.060Z,49.76
2017-12-22T03:22:31.972Z,49.99
2017-12-22T03:23:31.772Z,50.04
2017-12-22T03:24:31.793Z,50.15
2017-12-22T03:25:31.991Z,49.89
2017-12-22T03:26:32.025Z,49.97
2017-12-22T03:27:31.751Z,50.06
2017-12-22T03:28:32.005Z,50.1
2017-12-22T03:29:31.992Z,49.99
2017-12-22T03:30:32.012Z,49.79
2017-12-22T03:31:32.003Z,50.05
2017-12-22T03:32:31.980Z,50
2017-12-22T03:33:31.985Z,50.02
2017-12-22T03:34:32.015Z,49.91
2017-12-22T03:35:31.981Z,50.03
2017-12-22T03:36:32.008Z,50.35
2017-12-22T03:37:32.004Z,50.37
2017-12-22T03:38:32.000Z,50.16
2017-12-22T03:39:31.969Z,49.93
2017-12-22T03:40:32.084Z,49.8
2017-12-22T03:41:31.971Z,49.87
2017-12-22T03:42:32.012Z,49.77
2017-12-22T03:43:31.980Z,50.09
2017-12-22T03:44:32.003Z,50.1
2017-12-22T03:45:32.021Z,49.78
2017-12-22T03:46:31.968Z,50.17
2017-12-22T03:47:31.984Z,50.1
2017-12-22T03:48:31.978Z,50.05
2017-12-22T03:49:32.009Z,50.12
2017-12-22T03:50:31.827Z,50.16
2017-12-22T03:51:31.788Z,49.77
2017-12-22T03:52:31.975Z,49.91
2017-12-22T03:53:31.985Z,50.21
2017-12-22T03:54:31.997Z,50.16
2017-12-22T03:56:31.789Z,50.11
2017-12-22T03:57:32.012Z,50.45
2017-12-22T03:58:31.986Z,50.13
2017-12-22T03:59:32.002Z,50.09
2017-12-22T04:00:31.820Z,50.1
2017-12-22T04:01:31.805Z,50.08
2017-12-22T04:02:31.850Z,49.99
2017-12-22T04:03:31.986Z,50.12
2017-12-22T04:04:31.788Z,50.24
2017-12-22T04:05:31.977Z,50.31
2017-12-22T04:06:32.013Z,50.05
2017-12-22T04:07:31.863Z,49.78
2017-12-22T04:08:31.812Z,49.93
2017-12-22T04:09:31.982Z,49.9
2017-12-22T04:10:31.808Z,49.72
2017-12-22T04:11:31.841Z,50.14
2017-12-22T04:12:31.822Z,50.49
2017-12-22T04:13:31.799Z,50.39
2017-12-22T04:14:31.819Z,49.88
2017-12-22T04:15:32.012Z,49.92
2017-12-22T04:16:31.812Z,50.09
2017-12-22T04:17:31.990Z,49.91
2017-12-22T04:18:32.033Z,49.81
2017-12-22T04:19:32.018Z,49.98
2017-12-22T04:20:31.983Z,50.27
2017-12-22T04:21:32.016Z,49.79
2017-12-22T04:22:32.030Z,49.76
2017-12-22T04:23:31.993Z,50.07
2017-12-22T04:24:31.989Z,49.94
2017-12-22T04:25:32.010Z,50.14
2017-12-22T04:26:31.801Z,50.18
2017-12-22T04:27:31.815Z,50.28
2017-12-22T04:28:32.007Z,50.21
2017-12-22T04:29:31.978Z,50.37
2017-12-22T04:30:31.776Z,50.21
2017-12-22T04:31:31.823Z,50.27
2017-12-22T04:32:32.005Z,50.38
2017-12-22T04:33:32.014Z,50.42
2017-12-22T04:34:31.851Z,50.3
2017-12-22T04:35:31.988Z,50.32
2017-12-22T04:36:31.999Z,50.37
2017-12-22T04:37:32.025Z,49.86
2017-12-22T04:38:32.006Z,49.8
2017-12-22T04:39:31.798Z,49.87
2017-12-22T04:40:31.988Z,49.87
2017-12-22T04:41:31.799Z,49.98
2017-12-22T04:42:31.900Z,50.16
2017-12-22T04:43:32.056Z,50.36
2017-12-22T04:44:32.053Z,49.85
2017-12-22T04:45:31.822Z,50.31
2017-12-22T04:46:31.825Z,50.28
2017-12-22T04:47:31.825Z,50.12
2017-12-22T04:48:32.075Z,50.42
2017-12-22T04:49:32.004Z,49.87
2017-12-22T04:50:31.995Z,50.37
2017-12-22T04:51:31.989Z,50.45
2017-12-22T04:52:32.017Z,50.12
2017-12-22T04:53:32.060Z,50.22
2017-12-22T04:54:32.021Z,50
2017-12-22T04:55:32.118Z,50.34
2017-12-22T04:56:32.075Z,50.47
2017-12-22T04:57:32.014Z,50.21
2017-12-22T04:58:31.921Z,50.29
2017-12-22T04:59:32.104Z,50.05
2017-12-22T05:00:31.840Z,50.34
2017-12-22T05:01:32.186Z,49.74
2017-12-22T05:02:32.041Z,50.56
2017-12-22T05:03:32.108Z,50.5
2017-12-22T05:04:31.991Z,50.18
2017-12-22T05:05:31.910Z,50.25
2017-12-22T05:06:32.222Z,50.25
2017-12-22T05:07:31.893Z,50.48
2017-12-22T05:08:32.052Z,50.32
2017-12-22T05:09:32.309Z,49.71
2017-12-22T05:10:32.008Z,50.29
2017-12-22T05:11:32.636Z,50.39
2017-12-22T05:12:31.997Z,50.11
2017-12-22T05:13:32.065Z,50.18
2017-12-22T05:14:32.047Z,50.02
2017-12-22T05:15:31.942Z,50.27
2017-12-22T05:16:31.888Z,50.26
2017-12-22T05:17:32.081Z,49.85
2017-12-22T05:18:31.990Z,50.14
2017-12-22T05:19:32.190Z,49.68
2017-12-22T05:20:32.312Z,50.44
2017-12-22T05:21:32.062Z,49.72
2017-12-22T05:22:32.086Z,49.75
2017-12-22T05:23:31.871Z,50
2017-12-22T05:24:32.202Z,50.08
2017-12-22T05:25:32.378Z,49.91
2017-12-22T05:26:32.127Z,49.47
2017-12-22T05:27:32.361Z,49.92
2017-12-22T05:28:32.032Z,49.73
2017-12-22T05:29:32.145Z,49.71
2017-12-22T05:30:31.928Z,49.7
2017-12-22T05:31:32.043Z,49.41
2017-12-22T05:32:32.097Z,49.57
2017-12-22T05:33:32.039Z,49.48
2017-12-22T05:34:32.707Z,49.45
2017-12-22T05:35:32.053Z,49.38
2017-12-22T05:36:32.046Z,49.41
2017-12-22T05:37:32.039Z,49.54
2017-12-22T05:38:32.129Z,49.68
2017-12-22T05:39:32.109Z,49.62
2017-12-22T05:40:32.009Z,49.3
2017-12-22T05:41:32.068Z,49.38
2017-12-22T05:42:32.063Z,49.29
2017-12-22T05:43:32.213Z,49.31
2017-12-22T05:44:32.264Z,49.18
2017-12-22T05:45:32.035Z,49.57
2017-12-22T05:46:32.145Z,49.23
2017-12-22T05:47:32.319Z,49.32
2017-12-22T05:48:31.988Z,49.21
2017-12-22T05:49:32.066Z,49.31
2017-12-22T05:50:31.897Z,49.21
2017-12-22T05:51:32.389Z,49.17
2017-12-22T05:52:32.053Z,49.23
2017-12-22T05:53:31.968Z,49.12
2017-12-22T05:54:31.873Z,49.04
2017-12-22T05:55:32.213Z,49.28
2017-12-22T05:56:32.381Z,49.06
2017-12-22T05:57:32.164Z,49.1
2017-12-22T05:58:31.926Z,49.1
2017-12-22T05:59:32.049Z,48.92
2017-12-22T06:00:32.196Z,49.21
2017-12-22T06:01:32.039Z,49.06
2017-12-22T06:02:32.240Z,49.2
2017-12-22T06:03:32.340Z,49.1
2017-12-22T06:04:32.283Z,49
2017-12-22T06:05:31.881Z,48.86
2017-12-22T06:06:32.083Z,49.17
2017-12-22T06:07:32.194Z,49.02
2017-12-22T06:08:32.287Z,49.06
2017-12-22T06:09:32.134Z,48.99
2017-12-22T06:10:32.875Z,49.16
2017-12-22T06:11:32.572Z,48.99
2017-12-22T06:12:31.917Z,49.03
2017-12-22T06:13:32.185Z,49.03
2017-12-22T06:14:32.166Z,49.09
2017-12-22T06:15:32.361Z,48.92
2017-12-22T06:16:32.144Z,48.94
2017-12-22T06:17:32.334Z,48.96
2017-12-22T06:18:31.872Z,48.93
2017-12-22T06:19:31.898Z,48.83
2017-12-22T06:20:32.101Z,48.81
2017-12-22T06:21:32.103Z,48.82
2017-12-22T06:22:33.022Z,48.92
2017-12-22T06:23:32.090Z,48.71
2017-12-22T06:24:32.109Z,48.88
2017-12-22T06:25:31.900Z,48.88
2017-12-22T06:26:31.911Z,49
2017-12-22T06:27:32.131Z,48.76
2017-12-22T06:28:31.912Z,48.98
2017-12-22T06:29:31.946Z,48.83
2017-12-22T06:30:32.067Z,48.78
2017-12-22T06:31:32.043Z,48.77
2017-12-22T06:32:32.087Z,48.74
2017-12-22T06:33:32.289Z,48.72
2017-12-22T06:34:32.112Z,48.83
2017-12-22T06:35:32.086Z,48.79
2017-12-22T06:36:32.664Z,48.71
2017-12-22T06:37:32.059Z,48.61
2017-12-22T06:38:32.343Z,48.84
2017-12-22T06:39:32.026Z,48.75
2017-12-22T06:40:31.888Z,48.66
2017-12-22T06:41:31.922Z,48.66
2017-12-22T06:42:31.927Z,48.61
2017-12-22T06:43:32.189Z,48.57
2017-12-22T06:44:32.060Z,48.52
2017-12-22T06:45:31.858Z,48.64
2017-12-22T06:46:32.379Z,48.78
2017-12-22T06:47:32.496Z,48.7
2017-12-22T06:48:32.195Z,48.77
2017-12-22T06:49:31.900Z,48.68
2017-12-22T06:50:32.089Z,48.64
2017-12-22T06:51:32.134Z,48.63
2017-12-22T06:52:31.851Z,48.58
2017-12-22T06:53:32.472Z,48.64
2017-12-22T06:54:32.370Z,48.64
2017-12-22T06:55:32.700Z,48.67
2017-12-22T06:56:32.545Z,48.5
2017-12-22T06:57:32.374Z,48.64
2017-12-22T06:58:32.294Z,48.46
2017-12-22T06:59:32.467Z,48.69
2017-12-22T07:00:32.372Z,48.46
2017-12-22T07:01:32.452Z,48.69
2017-12-22T07:02:32.511Z,48.63
2017-12-22T07:03:32.194Z,48.56
2017-12-22T07:04:32.474Z,48.42
2017-12-22T07:05:32.333Z,48.6
2017-12-22T07:06:32.181Z,48.56
2017-12-22T07:07:32.506Z,48.4
2017-12-22T07:08:32.434Z,48.39
2017-12-22T07:09:32.111Z,48.32
2017-12-22T07:10:32.159Z,48.49
2017-12-22T07:11:32.403Z,48.39
2017-12-22T07:12:32.264Z,48.43
2017-12-22T07:13:31.911Z,48.32
2017-12-22T07:14:31.922Z,48.23
2017-12-22T07:15:32.795Z,48.38
2017-12-22T07:16:32.498Z,48.38
2017-12-22T07:17:32.332Z,48.45
2017-12-22T07:18:32.218Z,48.3
2017-12-22T07:19:32.223Z,48.3
2017-12-22T07:20:31.911Z,48.46
2017-12-22T07:21:32.202Z,48.38
2017-12-22T07:22:32.342Z,48.55
2017-12-22T07:23:32.242Z,48.43
2017-12-22T07:24:32.073Z,48.55
2017-12-22T07:25:31.882Z,48.46
2017-12-22T07:26:32.084Z,48.39
2017-12-22T07:27:32.119Z,48.49
2017-12-22T07:28:32.070Z,48.58
2017-12-22T07:29:32.062Z,48.53
2017-12-22T07:30:32.122Z,48.58
2017-12-22T07:31:32.055Z,48.55
2017-12-22T07:32:32.138Z,48.55
2017-12-22T07:33:32.058Z,48.48
2017-12-22T07:34:32.025Z,48.56
2017-12-22T07:35:31.865Z,48.54
2017-12-22T07:36:31.885Z,48.45
2017-12-22T07:37:31.933Z,48.46
2017-12-22T07:38:31.913Z,48.58
2017-12-22T07:39:31.886Z,48.61
2017-12-22T07:40:32.064Z,48.41
2017-12-22T07:41:32.106Z,48.58
2017-12-22T07:42:32.092Z,48.5
2017-12-22T07:43:31.864Z,48.52
2017-12-22T07:44:32.084Z,48.42
2017-12-22T07:45:31.855Z,48.52
2017-12-22T07:46:31.903Z,48.57
2017-12-22T07:47:31.899Z,48.56
2017-12-22T07:48:32.717Z,48.57
2017-12-22T07:49:32.093Z,48.56
2017-12-22T07:50:32.084Z,48.55
2017-12-22T07:51:32.178Z,48.38
2017-12-22T07:52:32.080Z,48.64
2017-12-22T07:53:32.518Z,48.46
2017-12-22T07:54:32.421Z,48.51
2017-12-22T07:55:32.073Z,48.4
2017-12-22T07:56:32.141Z,48.58
2017-12-22T07:57:31.973Z,48.49
2017-12-22T07:58:31.876Z,48.43
2017-12-22T07:59:32.114Z,48.51
2017-12-22T08:00:32.112Z,48.49
2017-12-22T08:01:32.098Z,48.44
2017-12-22T08:02:32.125Z,48.5
2017-12-22T08:03:32.081Z,48.49
2017-12-22T08:04:32.095Z,48.54
2017-12-22T08:05:32.094Z,48.62
2017-12-22T08:06:32.122Z,48.59
2017-12-22T08:07:32.066Z,48.38
2017-12-22T08:08:32.057Z,48.36
2017-12-22T08:09:32.093Z,48.52
2017-12-22T08:10:32.128Z,48.6
2017-12-22T08:11:31.882Z,48.59
2017-12-22T08:12:32.085Z,48.53
2017-12-22T08:13:31.888Z,48.49
2017-12-22T08:14:32.077Z,48.54
2017-12-22T08:15:31.962Z,48.36
2017-12-22T08:16:32.079Z,48.61
2017-12-22T08:17:31.895Z,48.6
2017-12-22T08:18:31.912Z,48.37
2017-12-22T08:19:31.994Z,48.34
2017-12-22T08:20:31.899Z,48.46
2017-12-22T08:21:32.097Z,48.43
2017-12-22T08:22:32.097Z,48.35
2017-12-22T08:23:31.899Z,48.58
2017-12-22T08:24:32.112Z,48.46
2017-12-22T08:25:31.935Z,48.4
2017-12-22T08:26:32.089Z,48.35
2017-12-22T08:27:32.081Z,48.46
2017-12-22T08:28:32.078Z,48.44
2017-12-22T08:29:32.074Z,48.26
2017-12-22T08:30:32.123Z,48.43
2017-12-22T08:31:32.141Z,48.44
2017-12-22T08:32:31.902Z,48.5
2017-12-22T08:33:32.090Z,48.38
2017-12-22T08:34:32.089Z,48.58
2017-12-22T08:35:31.900Z,48.46
2017-12-22T08:36:32.112Z,48.52
2017-12-22T08:37:31.901Z,48.52
2017-12-22T08:38:31.904Z,48.34
2017-12-22T08:39:32.095Z,48.46
2017-12-22T08:40:32.103Z,48.43
2017-12-22T08:41:32.079Z,48.49
2017-12-22T08:42:32.108Z,48.61
2017-12-22T08:43:32.091Z,48.44
2017-12-22T08:44:32.076Z,48.49
2017-12-22T08:45:31.900Z,48.51
2017-12-22T08:46:32.099Z,48.43
2017-12-22T08:47:31.895Z,48.39
2017-12-22T08:48:31.914Z,48.45
2017-12-22T08:49:31.918Z,48.53
2017-12-22T08:50:32.211Z,48.51
2017-12-22T08:51:32.113Z,48.52
2017-12-22T08:52:31.908Z,48.44
2017-12-22T08:53:32.127Z,48.51
2017-12-22T08:54:32.098Z,48.45
2017-12-22T08:55:32.119Z,48.35
2017-12-22T08:56:31.898Z,48.49
2017-12-22T08:57:32.101Z,48.44
2017-12-22T08:58:32.155Z,48.31
2017-12-22T08:59:31.929Z,48.46
2017-12-22T09:00:31.897Z,48.5
2017-12-22T09:01:32.131Z,48.35
2017-12-22T09:02:31.888Z,48.53
2017-12-22T09:03:32.137Z,48.41
2017-12-22T09:04:32.134Z,48.39
2017-12-22T09:05:31.910Z,48.26
2017-12-22T09:06:32.125Z,48.28
2017-12-22T09:07:32.173Z,48.44
2017-12-22T09:08:32.144Z,48.32
2017-12-22T09:09:32.100Z,48.32
2017-12-22T09:10:32.106Z,48.3
2017-12-22T09:11:31.893Z,48.36
2017-12-22T09:12:32.141Z,48.31
2017-12-22T09:14:31.934Z,48.28
2017-12-22T09:15:32.107Z,48.29
2017-12-22T09:16:31.920Z,48.26
2017-12-22T09:17:31.913Z,48.17
2017-12-22T09:18:32.101Z,48.26
2017-12-22T09:19:32.084Z,48.4
2017-12-22T09:20:31.914Z,48.24
2017-12-22T09:21:32.132Z,48.26
2017-12-22T09:22:31.940Z,48.3
2017-12-22T09:23:32.084Z,48.37
2017-12-22T09:24:32.079Z,48.29
2017-12-22T09:25:32.122Z,48.35
2017-12-22T09:26:32.099Z,48.19
2017-12-22T09:27:31.926Z,48.34
2017-12-22T09:28:32.137Z,48.3
2017-12-22T09:30:32.133Z,48.17
2017-12-22T09:31:32.150Z,48.32
2017-12-22T09:32:32.149Z,48.36
2017-12-22T09:33:31.903Z,48.19
2017-12-22T09:34:32.087Z,48.32
2017-12-22T09:35:32.117Z,48.36
2017-12-22T09:36:32.085Z,48.32
2017-12-22T09:37:32.138Z,48.31
2017-12-22T09:38:32.130Z,48.22
2017-12-22T09:39:31.956Z,48.21
2017-12-22T09:40:32.154Z,48.39
2017-12-22T09:41:32.118Z,48.35
2017-12-22T09:42:32.121Z,48.25
2017-12-22T09:43:32.122Z,48.21
2017-12-22T09:44:32.160Z,48.26
2017-12-22T09:45:31.931Z,48.36
2017-12-22T09:46:32.134Z,48.22
2017-12-22T09:47:32.092Z,48.25
2017-12-22T09:48:31.928Z,48.33
2017-12-22T09:49:32.140Z,48.24
2017-12-22T09:50:32.149Z,48.35
2017-12-22T09:51:31.929Z,48.3
2017-12-22T09:52:32.149Z,48.15
2017-12-22T09:53:32.117Z,48.24
2017-12-22T09:54:32.125Z,48.27
2017-12-22T09:55:32.103Z,48.36
2017-12-22T09:56:32.149Z,48.19
2017-12-22T09:57:32.149Z,48.11
2017-12-22T09:58:32.091Z,48.17
2017-12-22T09:59:31.906Z,48.19
2017-12-22T10:00:32.136Z,48.24
2017-12-22T10:01:32.163Z,48.23
2017-12-22T10:02:32.112Z,48.18
2017-12-22T10:03:32.148Z,48.31
2017-12-22T10:04:32.201Z,48.35
2017-12-22T10:05:32.129Z,48.1
2017-12-22T10:06:32.169Z,48.27
2017-12-22T10:07:32.169Z,48.11
2017-12-22T10:08:32.146Z,48.29
2017-12-22T10:09:32.153Z,48.34
2017-12-22T10:10:32.139Z,48.33
2017-12-22T10:11:32.150Z,48.21
2017-12-22T10:12:32.141Z,48.15
2017-12-22T10:13:32.126Z,48.21
2017-12-22T10:14:31.950Z,48.31
2017-12-22T10:15:31.902Z,48.27
2017-12-22T10:16:32.285Z,48.24
2017-12-22T10:17:32.102Z,48.16
2017-12-22T10:18:32.161Z,48.29
2017-12-22T10:19:32.142Z,48.21
2017-12-22T10:20:32.112Z,48.23
2017-12-22T10:21:32.160Z,48.2
2017-12-22T10:22:32.110Z,48.3
2017-12-22T10:23:32.195Z,48.23
2017-12-22T10:24:32.138Z,48.19
2017-12-22T10:25:32.123Z,48.29
2017-12-22T10:26:32.154Z,48.39
2017-12-22T10:27:32.152Z,48.26
2017-12-22T10:28:32.162Z,48.4
2017-12-22T10:29:31.958Z,48.18
2017-12-22T10:30:32.152Z,48.43
2017-12-22T10:31:32.163Z,48.43
2017-12-22T10:32:32.258Z,48.44
2017-12-22T10:33:32.142Z,48.23
2017-12-22T10:34:32.159Z,48.28
2017-12-22T10:35:32.127Z,48.33
2017-12-22T10:36:32.107Z,48.2
2017-12-22T10:37:31.977Z,48.31
2017-12-22T10:38:32.115Z,48.38
2017-12-22T10:39:31.957Z,48.38
2017-12-22T10:40:31.937Z,48.4
2017-12-22T10:41:32.124Z,48.38
2017-12-22T10:42:31.984Z,48.38
2017-12-22T10:43:31.962Z,48.21
2017-12-22T10:44:31.961Z,48.41
2017-12-22T10:45:31.957Z,48.25
2017-12-22T10:46:31.954Z,48.47
2017-12-22T10:47:32.192Z,48.24
2017-12-22T10:48:32.125Z,48.41
2017-12-22T10:49:32.158Z,48.29
2017-12-22T10:50:31.948Z,48.32
2017-12-22T10:51:32.172Z,48.17
2017-12-22T10:52:32.199Z,50.62
2017-12-22T10:53:41.579Z,48.59
2017-12-22T10:54:32.204Z,48.48
2017-12-22T10:55:32.112Z,48.3
2017-12-22T10:56:32.134Z,48.16
2017-12-22T10:57:31.957Z,48.29
2017-12-22T10:58:32.161Z,48.23
2017-12-22T10:59:32.135Z,48.05
2017-12-22T11:00:31.959Z,48.03
2017-12-22T11:01:31.985Z,48.1
2017-12-22T11:02:32.116Z,47.93
2017-12-22T11:03:32.169Z,47.97
2017-12-22T11:04:32.151Z,48.18
2017-12-22T11:05:32.128Z,47.98
2017-12-22T11:06:32.207Z,47.96
2017-12-22T11:07:32.122Z,48.07
2017-12-22T11:08:32.119Z,47.93
2017-12-22T11:09:32.145Z,47.89
2017-12-22T11:10:32.160Z,48.02
2017-12-22T11:11:32.309Z,47.9
2017-12-22T11:12:32.157Z,48.22
2017-12-22T11:13:32.156Z,47.98
2017-12-22T11:14:31.969Z,48.02
2017-12-22T11:15:32.163Z,48
2017-12-22T11:16:32.152Z,47.71
2017-12-22T11:17:32.162Z,47.51
2017-12-22T11:18:32.140Z,47.62
2017-12-22T11:19:32.168Z,47.67
2017-12-22T11:20:31.945Z,47.67
2017-12-22T11:21:32.120Z,47.77
2017-12-22T11:22:32.146Z,47.85
2017-12-22T11:23:31.966Z,48.17
2017-12-22T11:24:32.173Z,47.94
2017-12-22T11:25:32.226Z,47.82
2017-12-22T11:26:32.024Z,47.99
2017-12-22T11:27:32.143Z,48.05
2017-12-22T11:28:32.182Z,48.22
2017-12-22T11:29:32.145Z,48.04
2017-12-22T11:30:32.175Z,48.09
2017-12-22T11:31:32.152Z,48.27
2017-12-22T11:32:32.152Z,48.2
2017-12-22T11:33:32.001Z,48.13
2017-12-22T11:34:31.937Z,48.4
2017-12-22T11:35:32.182Z,48.28
2017-12-22T11:36:31.984Z,48.23
2017-12-22T11:37:31.961Z,48.3
2017-12-22T11:38:32.182Z,48.17
2017-12-22T11:39:31.975Z,48.16
2017-12-22T11:40:32.003Z,48.08
2017-12-22T11:41:31.980Z,48.14
2017-12-22T11:42:31.997Z,48.06
2017-12-22T11:43:32.227Z,48.15
2017-12-22T11:44:32.195Z,48.15
2017-12-22T11:45:32.171Z,48.06
2017-12-22T11:46:32.166Z,48.18
2017-12-22T11:47:32.216Z,48.12
2017-12-22T11:48:32.168Z,48.55
2017-12-22T11:49:32.221Z,48.4
2017-12-22T11:50:32.196Z,48.61
2017-12-22T11:51:31.967Z,48.45
2017-12-22T11:52:32.167Z,48.4
2017-12-22T11:53:32.145Z,48.45
2017-12-22T11:54:32.172Z,48.49
2017-12-22T11:55:32.136Z,48.35
2017-12-22T11:56:32.267Z,48.57
2017-12-22T11:57:32.183Z,48.37
2017-12-22T11:58:32.160Z,48.47
2017-12-22T11:59:32.002Z,48.46
2017-12-22T12:00:31.960Z,48.49
2017-12-22T12:01:32.048Z,48.37
2017-12-22T12:02:32.164Z,48.42
2017-12-22T12:03:31.973Z,48.29
2017-12-22T12:04:32.169Z,48.35
2017-12-22T12:05:31.972Z,48.35
2017-12-22T12:06:32.009Z,48.29
2017-12-22T12:07:32.184Z,48.32
2017-12-22T12:08:32.165Z,48.24
2017-12-22T12:09:32.178Z,48.19
2017-12-22T12:10:32.157Z,48.34
2017-12-22T12:11:32.182Z,48.25
2017-12-22T12:12:32.018Z,48.29
2017-12-22T12:13:32.227Z,48.08
2017-12-22T12:14:32.178Z,48.33
2017-12-22T12:15:31.988Z,48.18
2017-12-22T12:16:31.987Z,48.23
2017-12-22T12:17:31.978Z,48.26
2017-12-22T12:18:32.161Z,48.25
2017-12-22T12:19:32.238Z,48.15
2017-12-22T12:20:32.177Z,48.31
2017-12-22T12:21:32.199Z,48.16
2017-12-22T12:22:32.236Z,48.16
2017-12-22T12:23:32.190Z,48.13
2017-12-22T12:24:32.048Z,48.08
2017-12-22T12:25:32.169Z,48.3
2017-12-22T12:26:32.160Z,48.22
2017-12-22T12:27:32.263Z,48.16
2017-12-22T12:28:32.182Z,48.15
2017-12-22T12:29:32.023Z,47.98
2017-12-22T12:30:32.173Z,48.1
2017-12-22T12:31:32.193Z,48
2017-12-22T12:32:32.220Z,48.08
2017-12-22T12:33:32.184Z,48.14
2017-12-22T12:34:32.043Z,48.14
2017-12-22T12:35:31.985Z,48.05
2017-12-22T12:36:32.190Z,48.07
2017-12-22T12:37:32.035Z,48.07
2017-12-22T12:38:32.202Z,47.96
2017-12-22T12:39:32.003Z,48.14
2017-12-22T12:40:32.191Z,48.12
2017-12-22T12:41:32.531Z,48.11
2017-12-22T12:42:32.214Z,47.92
2017-12-22T12:43:32.195Z,48.04
2017-12-22T12:44:32.111Z,48.07
2017-12-22T12:45:32.005Z,47.88
2017-12-22T12:46:32.211Z,48.11
2017-12-22T12:47:32.206Z,48.08
2017-12-22T12:48:32.191Z,48.16
2017-12-22T12:49:32.068Z,48.13
2017-12-22T12:50:32.187Z,48.15
2017-12-22T12:51:32.204Z,48.11
2017-12-22T12:52:32.017Z,48.15
2017-12-22T12:53:32.015Z,48.01
2017-12-22T12:54:32.206Z,47.98
2017-12-22T12:55:32.241Z,47.94
2017-12-22T12:56:32.181Z,47.73
2017-12-22T12:57:32.030Z,47.77
2017-12-22T12:58:32.114Z,47.86